Tincup, Colorado
Current Conditions -  °F | °C
As of 11:34 AM on Saturday 25 Oct 2014 (Local Time) from K7BM Reporting Station
Clear Clear  
Wind Chill: 61°   Ceiling: Unl
Heat Index: 61°   Visibility: 10mi
Dew Point:   Wind: 6mph
Humidity: 13%   Direction: 120°ESE
Pressure: 30.5"   Gusts: NA
Location:  38.7752°N, 106.586°W
Report Text: K7BM 251734Z AUTO 12005KT 10SM CLR 16/M13 A3050 RMK AO2
Loading
Personal Weather Stations






























Interactive Weather Map
Tropical Storm Tracking
New forecast layout! Learn more

10-Day Weather Forecast

Advertisements
Track Severe Weather on mobile